sensor_id;sensor_type;location;lat;lon;timestamp;temperature;humidity
51215;DHT22;63849;47.546;19.254;2022-12-07T00:01:31;4.30;79.10
51215;DHT22;63849;47.546;19.254;2022-12-07T00:03:58;4.30;78.90
51215;DHT22;63849;47.546;19.254;2022-12-07T00:06:42;4.40;79.20
51215;DHT22;63849;47.546;19.254;2022-12-07T00:09:11;4.10;79.60
51215;DHT22;63849;47.546;19.254;2022-12-07T00:11:37;4.20;79.80
51215;DHT22;63849;47.546;19.254;2022-12-07T00:14:11;4.30;79.70
51215;DHT22;63849;47.546;19.254;2022-12-07T00:16:37;4.30;79.50
51215;DHT22;63849;47.546;19.254;2022-12-07T00:19:04;4.40;79.50
51215;DHT22;63849;47.546;19.254;2022-12-07T00:21:32;4.50;79.40
51215;DHT22;63849;47.546;19.254;2022-12-07T00:23:58;4.50;79.10
51215;DHT22;63849;47.546;19.254;2022-12-07T00:26:32;4.30;79.60
51215;DHT22;63849;47.546;19.254;2022-12-07T00:29:13;4.30;80.20
51215;DHT22;63849;47.546;19.254;2022-12-07T00:31:40;4.30;80.20
51215;DHT22;63849;47.546;19.254;2022-12-07T00:34:07;4.30;80.20
51215;DHT22;63849;47.546;19.254;2022-12-07T00:36:33;4.30;79.80
51215;DHT22;63849;47.546;19.254;2022-12-07T00:38:59;4.30;79.80
51215;DHT22;63849;47.546;19.254;2022-12-07T00:41:26;4.10;79.70
51215;DHT22;63849;47.546;19.254;2022-12-07T00:43:53;4.20;79.50
51215;DHT22;63849;47.546;19.254;2022-12-07T00:46:20;4.30;79.00
51215;DHT22;63849;47.546;19.254;2022-12-07T00:48:47;4.10;78.90
51215;DHT22;63849;47.546;19.254;2022-12-07T00:51:14;3.90;79.70
51215;DHT22;63849;47.546;19.254;2022-12-07T00:53:40;3.90;79.30
51215;DHT22;63849;47.546;19.254;2022-12-07T00:56:13;3.90;78.60
51215;DHT22;63849;47.546;19.254;2022-12-07T00:58:38;3.90;79.00
51215;DHT22;63849;47.546;19.254;2022-12-07T01:01:06;3.70;79.10
51215;DHT22;63849;47.546;19.254;2022-12-07T01:03:32;3.60;79.00
51215;DHT22;63849;47.546;19.254;2022-12-07T01:05:59;3.70;78.90
51215;DHT22;63849;47.546;19.254;2022-12-07T01:08:26;3.90;78.70
51215;DHT22;63849;47.546;19.254;2022-12-07T01:11:01;3.80;78.20
51215;DHT22;63849;47.546;19.254;2022-12-07T01:13:27;3.60;78.90
51215;DHT22;63849;47.546;19.254;2022-12-07T01:15:57;3.80;78.70
51215;DHT22;63849;47.546;19.254;2022-12-07T01:18:28;3.50;78.70
51215;DHT22;63849;47.546;19.254;2022-12-07T01:21:06;3.60;78.60
51215;DHT22;63849;47.546;19.254;2022-12-07T01:23:33;3.60;78.30
51215;DHT22;63849;47.546;19.254;2022-12-07T01:26:02;3.30;78.80
51215;DHT22;63849;47.546;19.254;2022-12-07T01:28:28;3.20;79.30
51215;DHT22;63849;47.546;19.254;2022-12-07T01:30:59;3.30;79.20
51215;DHT22;63849;47.546;19.254;2022-12-07T01:33:30;3.30;79.40
51215;DHT22;63849;47.546;19.254;2022-12-07T01:36:15;3.30;79.80
51215;DHT22;63849;47.546;19.254;2022-12-07T01:38:42;3.40;79.30
51215;DHT22;63849;47.546;19.254;2022-12-07T01:41:08;3.30;79.40
51215;DHT22;63849;47.546;19.254;2022-12-07T01:43:34;3.30;79.30
51215;DHT22;63849;47.546;19.254;2022-12-07T01:46:04;3.30;79.60
51215;DHT22;63849;47.546;19.254;2022-12-07T01:48:48;3.10;80.10
51215;DHT22;63849;47.546;19.254;2022-12-07T01:51:14;3.20;80.70
51215;DHT22;63849;47.546;19.254;2022-12-07T01:53:43;3.20;80.30
51215;DHT22;63849;47.546;19.254;2022-12-07T01:56:17;3.30;80.20
51215;DHT22;63849;47.546;19.254;2022-12-07T01:58:44;3.10;80.50
51215;DHT22;63849;47.546;19.254;2022-12-07T02:01:10;3.10;80.90
51215;DHT22;63849;47.546;19.254;2022-12-07T02:03:39;3.20;80.80
51215;DHT22;63849;47.546;19.254;2022-12-07T02:06:07;3.30;80.80
51215;DHT22;63849;47.546;19.254;2022-12-07T02:08:33;3.20;80.70
51215;DHT22;63849;47.546;19.254;2022-12-07T02:11:01;3.20;80.80
51215;DHT22;63849;47.546;19.254;2022-12-07T02:13:33;3.20;80.90
51215;DHT22;63849;47.546;19.254;2022-12-07T02:25:13;3.60;80.60
51215;DHT22;63849;47.546;19.254;2022-12-07T02:27:50;3.60;80.30
51215;DHT22;63849;47.546;19.254;2022-12-07T02:30:19;3.70;80.30
51215;DHT22;63849;47.546;19.254;2022-12-07T02:35:43;3.50;80.70
51215;DHT22;63849;47.546;19.254;2022-12-07T02:38:38;3.30;81.40
51215;DHT22;63849;47.546;19.254;2022-12-07T02:43:39;3.50;81.50
51215;DHT22;63849;47.546;19.254;2022-12-07T02:46:11;3.40;81.50
51215;DHT22;63849;47.546;19.254;2022-12-07T02:48:38;3.50;81.70
51215;DHT22;63849;47.546;19.254;2022-12-07T02:51:05;3.40;81.80
51215;DHT22;63849;47.546;19.254;2022-12-07T02:53:36;3.40;82.00
51215;DHT22;63849;47.546;19.254;2022-12-07T03:10:32;3.60;81.80
51215;DHT22;63849;47.546;19.254;2022-12-07T03:15:53;3.60;82.20
51215;DHT22;63849;47.546;19.254;2022-12-07T03:18:23;3.50;82.30
51215;DHT22;63849;47.546;19.254;2022-12-07T03:20:53;3.50;82.30
51215;DHT22;63849;47.546;19.254;2022-12-07T03:23:23;3.60;82.40
51215;DHT22;63849;47.546;19.254;2022-12-07T03:25:55;3.50;82.30
51215;DHT22;63849;47.546;19.254;2022-12-07T03:28:24;3.50;82.50
51215;DHT22;63849;47.546;19.254;2022-12-07T03:33:44;3.50;82.30
51215;DHT22;63849;47.546;19.254;2022-12-07T03:36:38;3.70;82.20
51215;DHT22;63849;47.546;19.254;2022-12-07T03:39:36;3.60;82.30
51215;DHT22;63849;47.546;19.254;2022-12-07T03:42:05;3.70;82.30
51215;DHT22;63849;47.546;19.254;2022-12-07T03:44:33;3.60;81.90
51215;DHT22;63849;47.546;19.254;2022-12-07T03:49:58;3.80;81.70
51215;DHT22;63849;47.546;19.254;2022-12-07T03:52:40;3.70;81.40
51215;DHT22;63849;47.546;19.254;2022-12-07T03:55:10;3.70;81.70
51215;DHT22;63849;47.546;19.254;2022-12-07T03:57:39;3.50;82.20
51215;DHT22;63849;47.546;19.254;2022-12-07T04:00:08;3.50;82.20
51215;DHT22;63849;47.546;19.254;2022-12-07T04:02:35;3.70;82.40
51215;DHT22;63849;47.546;19.254;2022-12-07T04:05:02;3.80;82.20
51215;DHT22;63849;47.546;19.254;2022-12-07T04:07:28;4.00;81.60
51215;DHT22;63849;47.546;19.254;2022-12-07T04:09:53;4.10;81.30
51215;DHT22;63849;47.546;19.254;2022-12-07T04:12:21;4.10;81.40
51215;DHT22;63849;47.546;19.254;2022-12-07T04:14:47;4.10;81.40
51215;DHT22;63849;47.546;19.254;2022-12-07T04:17:13;4.10;81.50
51215;DHT22;63849;47.546;19.254;2022-12-07T04:19:38;4.10;81.60
51215;DHT22;63849;47.546;19.254;2022-12-07T04:22:04;4.30;81.40
51215;DHT22;63849;47.546;19.254;2022-12-07T04:24:31;4.20;81.70
51215;DHT22;63849;47.546;19.254;2022-12-07T04:26:57;4.10;82.00
51215;DHT22;63849;47.546;19.254;2022-12-07T04:29:23;4.20;82.30
51215;DHT22;63849;47.546;19.254;2022-12-07T04:31:49;4.10;82.50
51215;DHT22;63849;47.546;19.254;2022-12-07T04:34:15;4.00;82.70
51215;DHT22;63849;47.546;19.254;2022-12-07T04:36:41;4.00;83.20
51215;DHT22;63849;47.546;19.254;2022-12-07T04:39:18;3.90;83.60
51215;DHT22;63849;47.546;19.254;2022-12-07T04:41:44;4.00;83.70
51215;DHT22;63849;47.546;19.254;2022-12-07T04:44:11;4.30;83.00
51215;DHT22;63849;47.546;19.254;2022-12-07T04:46:40;4.30;82.90
51215;DHT22;63849;47.546;19.254;2022-12-07T04:49:06;4.20;82.90
51215;DHT22;63849;47.546;19.254;2022-12-07T04:51:32;4.30;83.00
51215;DHT22;63849;47.546;19.254;2022-12-07T04:53:58;4.30;83.00
51215;DHT22;63849;47.546;19.254;2022-12-07T04:56:24;4.40;82.80
51215;DHT22;63849;47.546;19.254;2022-12-07T04:58:52;4.30;83.20
51215;DHT22;63849;47.546;19.254;2022-12-07T05:01:18;4.30;83.60
51215;DHT22;63849;47.546;19.254;2022-12-07T05:03:45;4.40;83.40
51215;DHT22;63849;47.546;19.254;2022-12-07T05:06:11;4.60;83.20
51215;DHT22;63849;47.546;19.254;2022-12-07T05:08:37;4.70;83.00
51215;DHT22;63849;47.546;19.254;2022-12-07T05:11:04;4.70;82.60
51215;DHT22;63849;47.546;19.254;2022-12-07T05:13:31;4.80;82.60
51215;DHT22;63849;47.546;19.254;2022-12-07T05:15:57;4.80;82.60
51215;DHT22;63849;47.546;19.254;2022-12-07T05:18:22;4.70;82.70
51215;DHT22;63849;47.546;19.254;2022-12-07T05:20:48;4.50;83.20
51215;DHT22;63849;47.546;19.254;2022-12-07T05:23:14;4.60;83.40
51215;DHT22;63849;47.546;19.254;2022-12-07T05:25:40;4.70;83.20
51215;DHT22;63849;47.546;19.254;2022-12-07T05:28:06;4.70;83.50
51215;DHT22;63849;47.546;19.254;2022-12-07T05:30:32;4.70;83.30
51215;DHT22;63849;47.546;19.254;2022-12-07T05:32:58;4.80;83.40
51215;DHT22;63849;47.546;19.254;2022-12-07T05:35:24;4.80;83.20
51215;DHT22;63849;47.546;19.254;2022-12-07T05:37:50;4.80;83.50
51215;DHT22;63849;47.546;19.254;2022-12-07T05:40:16;4.50;84.20
51215;DHT22;63849;47.546;19.254;2022-12-07T05:42:42;4.50;84.40
51215;DHT22;63849;47.546;19.254;2022-12-07T05:45:09;4.40;84.60
51215;DHT22;63849;47.546;19.254;2022-12-07T05:47:35;4.70;84.10
51215;DHT22;63849;47.546;19.254;2022-12-07T05:50:01;4.80;83.70
51215;DHT22;63849;47.546;19.254;2022-12-07T05:52:27;4.80;83.70
51215;DHT22;63849;47.546;19.254;2022-12-07T05:54:53;4.70;83.70
51215;DHT22;63849;47.546;19.254;2022-12-07T05:57:19;4.60;84.00
51215;DHT22;63849;47.546;19.254;2022-12-07T05:59:44;4.50;84.20
51215;DHT22;63849;47.546;19.254;2022-12-07T06:02:12;4.60;83.80
51215;DHT22;63849;47.546;19.254;2022-12-07T06:04:40;4.50;83.70
51215;DHT22;63849;47.546;19.254;2022-12-07T06:07:08;4.60;83.50
51215;DHT22;63849;47.546;19.254;2022-12-07T06:09:34;4.60;83.40
51215;DHT22;63849;47.546;19.254;2022-12-07T06:12:00;4.50;83.40
51215;DHT22;63849;47.546;19.254;2022-12-07T06:14:45;4.60;83.40
51215;DHT22;63849;47.546;19.254;2022-12-07T06:17:11;4.50;83.30
51215;DHT22;63849;47.546;19.254;2022-12-07T06:19:38;4.50;83.30
51215;DHT22;63849;47.546;19.254;2022-12-07T06:22:04;4.40;83.50
51215;DHT22;63849;47.546;19.254;2022-12-07T06:24:31;4.30;83.40
51215;DHT22;63849;47.546;19.254;2022-12-07T06:26:57;4.10;83.70
51215;DHT22;63849;47.546;19.254;2022-12-07T06:29:22;4.10;83.60
51215;DHT22;63849;47.546;19.254;2022-12-07T06:31:48;4.20;83.90
51215;DHT22;63849;47.546;19.254;2022-12-07T06:34:16;4.30;83.70
51215;DHT22;63849;47.546;19.254;2022-12-07T06:36:42;4.20;83.90
51215;DHT22;63849;47.546;19.254;2022-12-07T06:39:09;4.30;83.70
51215;DHT22;63849;47.546;19.254;2022-12-07T06:41:36;4.30;83.50
51215;DHT22;63849;47.546;19.254;2022-12-07T06:44:03;4.30;83.40
51215;DHT22;63849;47.546;19.254;2022-12-07T06:46:32;4.30;83.40
51215;DHT22;63849;47.546;19.254;2022-12-07T06:48:57;4.50;83.30
51215;DHT22;63849;47.546;19.254;2022-12-07T06:51:23;4.40;83.10
51215;DHT22;63849;47.546;19.254;2022-12-07T06:53:49;4.30;83.40
51215;DHT22;63849;47.546;19.254;2022-12-07T06:56:15;4.60;83.10
51215;DHT22;63849;47.546;19.254;2022-12-07T06:58:41;4.50;82.90
51215;DHT22;63849;47.546;19.254;2022-12-07T07:01:11;4.50;83.40
51215;DHT22;63849;47.546;19.254;2022-12-07T07:03:37;4.60;83.10
51215;DHT22;63849;47.546;19.254;2022-12-07T07:06:03;4.40;83.10
51215;DHT22;63849;47.546;19.254;2022-12-07T07:08:29;4.30;83.80
51215;DHT22;63849;47.546;19.254;2022-12-07T07:10:56;4.30;84.20
51215;DHT22;63849;47.546;19.254;2022-12-07T07:13:21;4.30;84.20
51215;DHT22;63849;47.546;19.254;2022-12-07T07:15:47;4.20;84.10
51215;DHT22;63849;47.546;19.254;2022-12-07T07:18:13;4.30;84.10
51215;DHT22;63849;47.546;19.254;2022-12-07T07:20:39;4.40;83.90
51215;DHT22;63849;47.546;19.254;2022-12-07T07:23:05;4.40;83.30
51215;DHT22;63849;47.546;19.254;2022-12-07T07:25:31;4.30;83.20
51215;DHT22;63849;47.546;19.254;2022-12-07T07:27:57;4.30;83.40
51215;DHT22;63849;47.546;19.254;2022-12-07T07:30:24;4.10;83.70
51215;DHT22;63849;47.546;19.254;2022-12-07T07:32:50;4.20;83.80
51215;DHT22;63849;47.546;19.254;2022-12-07T07:35:15;4.10;84.10
51215;DHT22;63849;47.546;19.254;2022-12-07T07:37:42;4.10;84.20
51215;DHT22;63849;47.546;19.254;2022-12-07T07:40:09;4.30;84.10
51215;DHT22;63849;47.546;19.254;2022-12-07T07:42:35;4.30;83.90
51215;DHT22;63849;47.546;19.254;2022-12-07T07:45:01;4.30;84.10
51215;DHT22;63849;47.546;19.254;2022-12-07T07:47:27;4.30;84.20
51215;DHT22;63849;47.546;19.254;2022-12-07T07:49:55;4.40;84.00
51215;DHT22;63849;47.546;19.254;2022-12-07T07:52:21;4.50;83.90
51215;DHT22;63849;47.546;19.254;2022-12-07T07:54:47;4.50;84.30
51215;DHT22;63849;47.546;19.254;2022-12-07T07:57:14;4.50;84.20
51215;DHT22;63849;47.546;19.254;2022-12-07T07:59:41;4.70;83.80
51215;DHT22;63849;47.546;19.254;2022-12-07T08:02:14;4.60;84.10
51215;DHT22;63849;47.546;19.254;2022-12-07T08:04:40;4.80;84.00
51215;DHT22;63849;47.546;19.254;2022-12-07T08:07:09;4.90;83.50
51215;DHT22;63849;47.546;19.254;2022-12-07T08:09:35;4.70;83.40
51215;DHT22;63849;47.546;19.254;2022-12-07T08:12:00;4.70;83.90
51215;DHT22;63849;47.546;19.254;2022-12-07T08:14:27;4.60;84.20
51215;DHT22;63849;47.546;19.254;2022-12-07T08:16:54;4.50;84.60
51215;DHT22;63849;47.546;19.254;2022-12-07T08:19:20;4.50;84.50
51215;DHT22;63849;47.546;19.254;2022-12-07T08:21:46;4.50;84.30
51215;DHT22;63849;47.546;19.254;2022-12-07T08:24:12;4.50;84.70
51215;DHT22;63849;47.546;19.254;2022-12-07T08:26:38;4.70;84.50
51215;DHT22;63849;47.546;19.254;2022-12-07T08:29:03;4.70;84.30
51215;DHT22;63849;47.546;19.254;2022-12-07T08:31:29;4.70;84.50
51215;DHT22;63849;47.546;19.254;2022-12-07T08:33:56;4.70;85.00
51215;DHT22;63849;47.546;19.254;2022-12-07T08:36:22;4.80;84.90
51215;DHT22;63849;47.546;19.254;2022-12-07T08:38:48;4.70;84.90
51215;DHT22;63849;47.546;19.254;2022-12-07T08:41:15;4.80;85.00
51215;DHT22;63849;47.546;19.254;2022-12-07T08:43:41;4.70;84.70
51215;DHT22;63849;47.546;19.254;2022-12-07T08:46:20;4.80;84.90
51215;DHT22;63849;47.546;19.254;2022-12-07T08:48:54;4.80;84.90
51215;DHT22;63849;47.546;19.254;2022-12-07T08:51:21;4.90;84.60
51215;DHT22;63849;47.546;19.254;2022-12-07T08:53:48;5.00;84.50
51215;DHT22;63849;47.546;19.254;2022-12-07T08:56:15;4.90;84.30
51215;DHT22;63849;47.546;19.254;2022-12-07T08:58:41;4.80;85.20
51215;DHT22;63849;47.546;19.254;2022-12-07T09:01:08;5.10;85.10
51215;DHT22;63849;47.546;19.254;2022-12-07T09:03:34;5.10;84.80
51215;DHT22;63849;47.546;19.254;2022-12-07T09:06:00;5.30;84.70
51215;DHT22;63849;47.546;19.254;2022-12-07T09:08:31;5.40;84.60
51215;DHT22;63849;47.546;19.254;2022-12-07T09:10:58;5.30;84.90
51215;DHT22;63849;47.546;19.254;2022-12-07T09:13:23;5.40;84.80
51215;DHT22;63849;47.546;19.254;2022-12-07T09:15:49;5.60;84.70
51215;DHT22;63849;47.546;19.254;2022-12-07T09:18:15;5.30;84.90
51215;DHT22;63849;47.546;19.254;2022-12-07T09:20:41;5.50;84.80
51215;DHT22;63849;47.546;19.254;2022-12-07T09:23:06;5.70;84.40
51215;DHT22;63849;47.546;19.254;2022-12-07T09:25:33;5.70;84.40
51215;DHT22;63849;47.546;19.254;2022-12-07T09:28:00;5.80;84.10
51215;DHT22;63849;47.546;19.254;2022-12-07T09:30:26;5.80;83.70
51215;DHT22;63849;47.546;19.254;2022-12-07T09:32:54;5.80;83.60
51215;DHT22;63849;47.546;19.254;2022-12-07T09:35:20;5.90;83.50
51215;DHT22;63849;47.546;19.254;2022-12-07T09:37:46;5.80;83.40
51215;DHT22;63849;47.546;19.254;2022-12-07T09:40:13;5.80;83.50
51215;DHT22;63849;47.546;19.254;2022-12-07T09:42:42;5.80;83.50
51215;DHT22;63849;47.546;19.254;2022-12-07T09:45:15;5.90;83.50
51215;DHT22;63849;47.546;19.254;2022-12-07T09:47:42;5.80;83.30
51215;DHT22;63849;47.546;19.254;2022-12-07T09:50:29;5.80;83.40
51215;DHT22;63849;47.546;19.254;2022-12-07T09:53:09;5.80;83.40
51215;DHT22;63849;47.546;19.254;2022-12-07T09:55:36;5.80;83.40
51215;DHT22;63849;47.546;19.254;2022-12-07T09:58:03;5.80;83.50
51215;DHT22;63849;47.546;19.254;2022-12-07T10:00:29;5.80;83.20
51215;DHT22;63849;47.546;19.254;2022-12-07T10:02:57;5.90;83.40
51215;DHT22;63849;47.546;19.254;2022-12-07T10:05:35;5.90;83.40
51215;DHT22;63849;47.546;19.254;2022-12-07T10:08:04;5.90;83.20
51215;DHT22;63849;47.546;19.254;2022-12-07T10:10:33;5.90;82.70
51215;DHT22;63849;47.546;19.254;2022-12-07T10:13:05;5.90;82.60
51215;DHT22;63849;47.546;19.254;2022-12-07T10:18:20;5.90;83.20
51215;DHT22;63849;47.546;19.254;2022-12-07T10:20:47;6.00;82.90
51215;DHT22;63849;47.546;19.254;2022-12-07T10:23:15;6.00;82.80
51215;DHT22;63849;47.546;19.254;2022-12-07T10:25:42;6.00;82.40
51215;DHT22;63849;47.546;19.254;2022-12-07T10:30:56;6.00;82.60
51215;DHT22;63849;47.546;19.254;2022-12-07T10:39:15;6.10;81.80
51215;DHT22;63849;47.546;19.254;2022-12-07T10:42:02;6.20;81.50
51215;DHT22;63849;47.546;19.254;2022-12-07T10:44:33;6.30;80.60
51215;DHT22;63849;47.546;19.254;2022-12-07T10:47:25;6.40;81.00
51215;DHT22;63849;47.546;19.254;2022-12-07T10:50:14;6.40;80.60
51215;DHT22;63849;47.546;19.254;2022-12-07T10:52:59;6.40;79.40
51215;DHT22;63849;47.546;19.254;2022-12-07T10:58:27;6.30;79.50
51215;DHT22;63849;47.546;19.254;2022-12-07T11:01:10;6.30;79.10
51215;DHT22;63849;47.546;19.254;2022-12-07T11:03:53;6.30;79.20
51215;DHT22;63849;47.546;19.254;2022-12-07T11:14:34;6.30;79.60
51215;DHT22;63849;47.546;19.254;2022-12-07T11:17:17;6.30;79.40
51215;DHT22;63849;47.546;19.254;2022-12-07T11:20:05;6.40;79.20
51215;DHT22;63849;47.546;19.254;2022-12-07T11:28:18;6.60;78.80
51215;DHT22;63849;47.546;19.254;2022-12-07T11:33:46;6.60;77.80
51215;DHT22;63849;47.546;19.254;2022-12-07T11:39:00;6.50;77.70
51215;DHT22;63849;47.546;19.254;2022-12-07T11:41:35;6.50;77.30
51215;DHT22;63849;47.546;19.254;2022-12-07T11:46:53;6.50;77.40
51215;DHT22;63849;47.546;19.254;2022-12-07T11:52:48;6.60;77.70
51215;DHT22;63849;47.546;19.254;2022-12-07T11:55:40;6.50;77.40
51215;DHT22;63849;47.546;19.254;2022-12-07T12:01:05;6.50;77.10
51215;DHT22;63849;47.546;19.254;2022-12-07T12:03:38;6.50;76.50
51215;DHT22;63849;47.546;19.254;2022-12-07T12:06:05;6.50;76.40
51215;DHT22;63849;47.546;19.254;2022-12-07T12:08:48;6.50;76.70
51215;DHT22;63849;47.546;19.254;2022-12-07T12:19:41;6.40;75.50
51215;DHT22;63849;47.546;19.254;2022-12-07T12:22:20;6.40;75.70
51215;DHT22;63849;47.546;19.254;2022-12-07T12:24:51;6.40;75.30
51215;DHT22;63849;47.546;19.254;2022-12-07T12:27:27;6.40;75.70
51215;DHT22;63849;47.546;19.254;2022-12-07T12:29:59;6.40;76.10
51215;DHT22;63849;47.546;19.254;2022-12-07T12:32:41;6.40;75.60
51215;DHT22;63849;47.546;19.254;2022-12-07T12:35:30;6.30;75.60
51215;DHT22;63849;47.546;19.254;2022-12-07T12:38:32;6.30;75.90
51215;DHT22;63849;47.546;19.254;2022-12-07T12:41:02;6.40;76.40
51215;DHT22;63849;47.546;19.254;2022-12-07T12:43:51;6.30;76.00
51215;DHT22;63849;47.546;19.254;2022-12-07T12:51:50;6.30;75.00
51215;DHT22;63849;47.546;19.254;2022-12-07T12:54:31;6.30;75.10
51215;DHT22;63849;47.546;19.254;2022-12-07T12:57:29;6.30;75.00
51215;DHT22;63849;47.546;19.254;2022-12-07T12:59:58;6.30;75.00
51215;DHT22;63849;47.546;19.254;2022-12-07T13:05:00;6.30;74.50
51215;DHT22;63849;47.546;19.254;2022-12-07T13:26:23;6.30;74.80
51215;DHT22;63849;47.546;19.254;2022-12-07T13:28:50;6.30;75.00
51215;DHT22;63849;47.546;19.254;2022-12-07T13:33:47;6.40;75.50
51215;DHT22;63849;47.546;19.254;2022-12-07T13:36:27;6.30;75.90
51215;DHT22;63849;47.546;19.254;2022-12-07T13:39:18;6.40;76.00
51215;DHT22;63849;47.546;19.254;2022-12-07T13:41:48;6.40;76.00
51215;DHT22;63849;47.546;19.254;2022-12-07T13:44:17;6.40;75.90
51215;DHT22;63849;47.546;19.254;2022-12-07T13:47:06;6.30;75.60
51215;DHT22;63849;47.546;19.254;2022-12-07T13:49:56;6.30;75.80
51215;DHT22;63849;47.546;19.254;2022-12-07T13:52:27;6.30;75.20
51215;DHT22;63849;47.546;19.254;2022-12-07T13:55:11;6.30;75.10
51215;DHT22;63849;47.546;19.254;2022-12-07T13:57:39;6.30;75.20
51215;DHT22;63849;47.546;19.254;2022-12-07T14:00:13;6.20;75.60
51215;DHT22;63849;47.546;19.254;2022-12-07T14:03:04;6.10;74.80
51215;DHT22;63849;47.546;19.254;2022-12-07T14:05:47;6.10;74.60
51215;DHT22;63849;47.546;19.254;2022-12-07T14:08:30;6.10;74.50
51215;DHT22;63849;47.546;19.254;2022-12-07T14:10:57;6.00;74.70
51215;DHT22;63849;47.546;19.254;2022-12-07T14:15:53;6.00;74.70
51215;DHT22;63849;47.546;19.254;2022-12-07T14:18:38;6.00;74.80
51215;DHT22;63849;47.546;19.254;2022-12-07T14:23:33;5.90;74.80
51215;DHT22;63849;47.546;19.254;2022-12-07T14:26:18;5.90;74.90
51215;DHT22;63849;47.546;19.254;2022-12-07T14:28:45;5.90;74.40
51215;DHT22;63849;47.546;19.254;2022-12-07T14:31:16;6.00;74.40
51215;DHT22;63849;47.546;19.254;2022-12-07T14:33:42;5.90;74.40
51215;DHT22;63849;47.546;19.254;2022-12-07T14:36:12;5.80;74.40
51215;DHT22;63849;47.546;19.254;2022-12-07T14:38:39;5.80;74.40
51215;DHT22;63849;47.546;19.254;2022-12-07T14:41:06;5.80;74.60
51215;DHT22;63849;47.546;19.254;2022-12-07T14:43:56;5.80;75.20
51215;DHT22;63849;47.546;19.254;2022-12-07T14:46:22;5.80;75.00
51215;DHT22;63849;47.546;19.254;2022-12-07T14:48:47;5.70;75.10
51215;DHT22;63849;47.546;19.254;2022-12-07T14:51:13;5.70;75.00
51215;DHT22;63849;47.546;19.254;2022-12-07T14:53:43;5.60;75.10
51215;DHT22;63849;47.546;19.254;2022-12-07T14:56:10;5.60;75.30
51215;DHT22;63849;47.546;19.254;2022-12-07T14:58:35;5.60;75.40
51215;DHT22;63849;47.546;19.254;2022-12-07T15:01:01;5.50;75.30
51215;DHT22;63849;47.546;19.254;2022-12-07T15:03:27;5.50;75.30
51215;DHT22;63849;47.546;19.254;2022-12-07T15:05:53;5.50;75.40
51215;DHT22;63849;47.546;19.254;2022-12-07T15:08:18;5.40;75.40
51215;DHT22;63849;47.546;19.254;2022-12-07T15:10:44;5.40;75.30
51215;DHT22;63849;47.546;19.254;2022-12-07T15:13:10;5.40;75.30
51215;DHT22;63849;47.546;19.254;2022-12-07T15:15:55;5.30;75.40
51215;DHT22;63849;47.546;19.254;2022-12-07T15:18:27;5.30;75.80
51215;DHT22;63849;47.546;19.254;2022-12-07T15:20:53;5.30;76.10
51215;DHT22;63849;47.546;19.254;2022-12-07T15:23:19;5.30;76.10
51215;DHT22;63849;47.546;19.254;2022-12-07T15:25:46;5.00;76.40
51215;DHT22;63849;47.546;19.254;2022-12-07T15:28:13;5.00;76.50
51215;DHT22;63849;47.546;19.254;2022-12-07T15:30:40;4.90;77.00
51215;DHT22;63849;47.546;19.254;2022-12-07T15:33:06;4.80;77.20
51215;DHT22;63849;47.546;19.254;2022-12-07T15:35:31;4.70;77.20
51215;DHT22;63849;47.546;19.254;2022-12-07T15:37:57;4.60;78.00
51215;DHT22;63849;47.546;19.254;2022-12-07T15:40:23;4.60;77.90
51215;DHT22;63849;47.546;19.254;2022-12-07T15:42:49;4.60;77.70
51215;DHT22;63849;47.546;19.254;2022-12-07T15:45:14;4.50;77.90
51215;DHT22;63849;47.546;19.254;2022-12-07T15:47:42;4.50;78.10
51215;DHT22;63849;47.546;19.254;2022-12-07T15:50:11;4.50;78.00
51215;DHT22;63849;47.546;19.254;2022-12-07T15:52:38;4.50;77.60
51215;DHT22;63849;47.546;19.254;2022-12-07T15:55:04;4.60;77.60
51215;DHT22;63849;47.546;19.254;2022-12-07T15:57:31;4.60;77.60
51215;DHT22;63849;47.546;19.254;2022-12-07T15:59:57;4.60;77.70
51215;DHT22;63849;47.546;19.254;2022-12-07T16:02:23;4.50;77.90
51215;DHT22;63849;47.546;19.254;2022-12-07T16:04:50;4.70;77.40
51215;DHT22;63849;47.546;19.254;2022-12-07T16:07:16;4.70;77.40
51215;DHT22;63849;47.546;19.254;2022-12-07T16:09:43;4.50;77.40
51215;DHT22;63849;47.546;19.254;2022-12-07T16:12:10;4.40;77.60
51215;DHT22;63849;47.546;19.254;2022-12-07T16:14:36;4.40;77.60
51215;DHT22;63849;47.546;19.254;2022-12-07T16:17:02;4.50;77.80
51215;DHT22;63849;47.546;19.254;2022-12-07T16:19:30;4.40;78.00
51215;DHT22;63849;47.546;19.254;2022-12-07T16:21:56;4.30;77.50
51215;DHT22;63849;47.546;19.254;2022-12-07T16:24:22;4.30;77.80
51215;DHT22;63849;47.546;19.254;2022-12-07T16:26:48;4.40;77.50
51215;DHT22;63849;47.546;19.254;2022-12-07T16:29:14;4.30;78.00
51215;DHT22;63849;47.546;19.254;2022-12-07T16:31:40;4.20;78.00
51215;DHT22;63849;47.546;19.254;2022-12-07T16:34:06;4.20;77.90
51215;DHT22;63849;47.546;19.254;2022-12-07T16:36:32;4.30;77.80
51215;DHT22;63849;47.546;19.254;2022-12-07T16:38:58;4.20;77.50
51215;DHT22;63849;47.546;19.254;2022-12-07T16:41:24;4.30;77.50
51215;DHT22;63849;47.546;19.254;2022-12-07T16:43:50;4.10;77.80
51215;DHT22;63849;47.546;19.254;2022-12-07T16:46:16;4.00;78.20
51215;DHT22;63849;47.546;19.254;2022-12-07T16:48:43;4.10;77.80
51215;DHT22;63849;47.546;19.254;2022-12-07T16:51:11;4.10;78.10
51215;DHT22;63849;47.546;19.254;2022-12-07T16:53:38;4.10;78.00
51215;DHT22;63849;47.546;19.254;2022-12-07T16:56:05;4.00;77.80
51215;DHT22;63849;47.546;19.254;2022-12-07T16:58:34;4.10;77.40
51215;DHT22;63849;47.546;19.254;2022-12-07T17:01:09;4.00;77.70
51215;DHT22;63849;47.546;19.254;2022-12-07T17:03:35;3.90;77.80
51215;DHT22;63849;47.546;19.254;2022-12-07T17:06:01;3.90;77.50
51215;DHT22;63849;47.546;19.254;2022-12-07T17:08:27;3.80;77.80
51215;DHT22;63849;47.546;19.254;2022-12-07T17:10:53;3.90;78.00
51215;DHT22;63849;47.546;19.254;2022-12-07T17:13:18;3.80;78.00
51215;DHT22;63849;47.546;19.254;2022-12-07T17:16:05;3.90;78.20
51215;DHT22;63849;47.546;19.254;2022-12-07T17:18:33;4.00;78.10
51215;DHT22;63849;47.546;19.254;2022-12-07T17:21:07;4.10;77.90
51215;DHT22;63849;47.546;19.254;2022-12-07T17:23:36;4.00;78.10
51215;DHT22;63849;47.546;19.254;2022-12-07T17:26:10;3.80;77.70
51215;DHT22;63849;47.546;19.254;2022-12-07T17:28:36;3.90;77.80
51215;DHT22;63849;47.546;19.254;2022-12-07T17:31:07;3.80;78.00
51215;DHT22;63849;47.546;19.254;2022-12-07T17:33:34;3.60;78.50
51215;DHT22;63849;47.546;19.254;2022-12-07T17:36:00;3.50;78.90
51215;DHT22;63849;47.546;19.254;2022-12-07T17:38:28;3.50;78.80
51215;DHT22;63849;47.546;19.254;2022-12-07T17:40:54;3.70;78.70
51215;DHT22;63849;47.546;19.254;2022-12-07T17:43:19;3.60;78.80
51215;DHT22;63849;47.546;19.254;2022-12-07T17:45:45;3.60;78.70
51215;DHT22;63849;47.546;19.254;2022-12-07T17:48:11;3.80;78.50